createdAt,value
2023-05-18T00:00:14.175Z,100.00
2023-05-18T00:02:42.302Z,100.00
2023-05-18T00:05:10.383Z,100.00
2023-05-18T00:07:37.608Z,100.00
2023-05-18T00:10:05.296Z,100.00
2023-05-18T00:12:32.355Z,100.00
2023-05-18T00:14:59.401Z,100.00
2023-05-18T00:17:26.578Z,100.00
2023-05-18T00:19:53.655Z,100.00
2023-05-18T00:22:20.762Z,100.00
2023-05-18T00:24:48.384Z,100.00
2023-05-18T00:27:15.521Z,100.00
2023-05-18T00:29:42.573Z,100.00
2023-05-18T00:32:09.771Z,100.00
2023-05-18T00:34:37.552Z,100.00
2023-05-18T00:37:04.598Z,100.00
2023-05-18T00:39:31.623Z,100.00
2023-05-18T00:41:58.667Z,100.00
2023-05-18T00:44:25.858Z,100.00
2023-05-18T00:46:53.077Z,100.00
2023-05-18T00:49:20.455Z,100.00
2023-05-18T00:51:48.032Z,100.00
2023-05-18T00:54:15.934Z,100.00
2023-05-18T00:56:46.189Z,100.00
2023-05-18T00:59:13.481Z,100.00
2023-05-18T01:01:43.904Z,100.00
2023-05-18T01:04:16.404Z,100.00
2023-05-18T01:06:43.692Z,100.00
2023-05-18T01:09:12.174Z,100.00
2023-05-18T01:11:57.103Z,100.00
2023-05-18T01:14:52.529Z,100.00
2023-05-18T01:17:33.739Z,100.00
2023-05-18T01:20:12.083Z,100.00
2023-05-18T01:23:02.005Z,100.00
2023-05-18T01:25:54.212Z,100.00
2023-05-18T01:28:26.466Z,100.00
2023-05-18T01:30:54.909Z,100.00
2023-05-18T01:33:22.425Z,100.00
2023-05-18T01:35:49.627Z,100.00
2023-05-18T01:38:18.889Z,100.00
2023-05-18T01:40:55.698Z,100.00
2023-05-18T01:43:30.908Z,100.00
2023-05-18T01:46:05.261Z,100.00
2023-05-18T01:48:37.864Z,100.00
2023-05-18T01:51:06.337Z,100.00
2023-05-18T01:53:39.542Z,100.00
2023-05-18T01:56:08.860Z,100.00
2023-05-18T01:58:37.372Z,100.00
2023-05-18T02:01:05.114Z,100.00
2023-05-18T02:03:33.348Z,100.00
2023-05-18T02:06:00.716Z,100.00
2023-05-18T02:08:28.013Z,100.00
2023-05-18T02:10:55.097Z,100.00
2023-05-18T02:13:22.188Z,100.00
2023-05-18T02:15:49.592Z,100.00
2023-05-18T02:18:16.702Z,100.00
2023-05-18T02:20:43.820Z,100.00
2023-05-18T02:23:11.002Z,100.00
2023-05-18T02:25:38.651Z,100.00
2023-05-18T02:28:06.090Z,100.00
2023-05-18T02:30:34.495Z,100.00
2023-05-18T02:33:01.669Z,100.00
2023-05-18T02:35:29.164Z,100.00
2023-05-18T02:37:58.253Z,100.00
2023-05-18T02:40:25.438Z,100.00
2023-05-18T02:42:52.599Z,100.00
2023-05-18T02:45:20.892Z,100.00
2023-05-18T02:47:48.070Z,100.00
2023-05-18T02:50:15.501Z,100.00
2023-05-18T02:52:45.504Z,100.00
2023-05-18T02:55:13.703Z,100.00
2023-05-18T02:57:56.973Z,100.00
2023-05-18T03:00:32.417Z,100.00
2023-05-18T03:03:00.891Z,100.00
2023-05-18T03:05:29.062Z,100.00
2023-05-18T03:07:56.291Z,100.00
2023-05-18T03:10:23.564Z,100.00
2023-05-18T03:12:50.649Z,100.00
2023-05-18T03:15:17.930Z,100.00
2023-05-18T03:17:45.302Z,100.00
2023-05-18T03:20:15.398Z,100.00
2023-05-18T03:22:42.875Z,100.00
2023-05-18T03:25:09.989Z,100.00
2023-05-18T03:27:37.865Z,100.00
2023-05-18T03:30:05.776Z,100.00
2023-05-18T03:32:33.923Z,100.00
2023-05-18T03:35:01.194Z,100.00
2023-05-18T03:37:28.880Z,100.00
2023-05-18T03:40:08.233Z,100.00
2023-05-18T03:42:35.457Z,100.00
2023-05-18T03:45:03.028Z,100.00
2023-05-18T03:47:30.131Z,100.00
2023-05-18T03:49:57.220Z,100.00
2023-05-18T03:52:24.469Z,100.00
2023-05-18T03:54:52.035Z,100.00
2023-05-18T03:57:19.130Z,100.00
2023-05-18T03:59:46.298Z,100.00
2023-05-18T04:02:13.781Z,100.00
2023-05-18T04:04:45.956Z,100.00
2023-05-18T04:07:16.450Z,100.00
2023-05-18T04:09:44.446Z,100.00
2023-05-18T04:12:11.717Z,100.00
2023-05-18T04:14:38.849Z,100.00
2023-05-18T04:17:06.648Z,100.00
2023-05-18T04:19:42.945Z,100.00
2023-05-18T04:22:10.221Z,100.00
2023-05-18T04:24:38.359Z,100.00
2023-05-18T04:27:05.506Z,100.00
2023-05-18T04:29:32.624Z,100.00
2023-05-18T04:32:01.002Z,100.00
2023-05-18T04:34:29.769Z,100.00
2023-05-18T04:37:00.139Z,100.00
2023-05-18T04:39:27.351Z,100.00
2023-05-18T04:41:58.297Z,100.00
2023-05-18T04:44:28.131Z,100.00
2023-05-18T04:46:57.640Z,100.00
2023-05-18T04:49:26.098Z,100.00
2023-05-18T04:51:58.946Z,100.00
2023-05-18T04:54:30.735Z,100.00
2023-05-18T04:56:59.002Z,100.00
2023-05-18T04:59:29.078Z,100.00
2023-05-18T05:01:56.367Z,100.00
2023-05-18T05:04:24.851Z,100.00
2023-05-18T05:06:51.942Z,100.00
2023-05-18T05:09:19.051Z,100.00
2023-05-18T05:11:46.599Z,100.00
2023-05-18T05:14:13.840Z,100.00
2023-05-18T05:16:41.458Z,100.00
2023-05-18T05:19:08.595Z,100.00
2023-05-18T05:21:36.155Z,100.00
2023-05-18T05:24:05.933Z,100.00
2023-05-18T05:26:33.062Z,100.00
2023-05-18T05:29:00.196Z,100.00
2023-05-18T05:31:27.558Z,100.00
2023-05-18T05:33:54.649Z,100.00
2023-05-18T05:36:21.773Z,100.00
2023-05-18T05:38:48.834Z,100.00
2023-05-18T05:41:16.382Z,100.00
2023-05-18T05:43:43.532Z,100.00
2023-05-18T05:46:10.849Z,100.00
2023-05-18T05:48:37.939Z,99.32
2023-05-18T05:51:05.119Z,95.09
2023-05-18T05:53:33.261Z,93.14
2023-05-18T05:56:00.332Z,95.19
2023-05-18T05:58:27.420Z,91.10
2023-05-18T06:00:58.514Z,91.59
2023-05-18T06:03:26.648Z,91.58
2023-05-18T06:05:56.324Z,89.62
2023-05-18T06:08:26.532Z,90.45
2023-05-18T06:10:55.010Z,88.83
2023-05-18T06:13:22.463Z,90.08
2023-05-18T06:15:54.921Z,87.50
2023-05-18T06:18:22.950Z,87.59
2023-05-18T06:20:51.260Z,87.47
2023-05-18T06:23:22.704Z,85.78
2023-05-18T06:26:01.675Z,85.87
2023-05-18T06:28:45.262Z,86.10
2023-05-18T06:31:25.000Z,85.48
2023-05-18T06:33:59.897Z,83.91
2023-05-18T06:36:27.038Z,85.40
2023-05-18T06:38:54.085Z,82.93
2023-05-18T06:41:22.197Z,81.27
2023-05-18T06:43:50.549Z,81.55
2023-05-18T06:46:23.857Z,81.95
2023-05-18T06:48:54.854Z,81.36
2023-05-18T06:51:22.213Z,80.81
2023-05-18T06:53:50.333Z,79.13
2023-05-18T06:56:18.693Z,79.05
2023-05-18T06:58:46.619Z,76.17
2023-05-18T07:01:14.455Z,75.64
2023-05-18T07:03:41.854Z,75.99
2023-05-18T07:06:09.018Z,75.84
2023-05-18T07:08:37.021Z,75.12
2023-05-18T07:11:04.435Z,74.04
2023-05-18T07:13:31.979Z,72.80
2023-05-18T07:15:59.124Z,71.56
2023-05-18T07:18:26.726Z,72.09
2023-05-18T07:20:53.837Z,71.56
2023-05-18T07:23:21.333Z,70.57
2023-05-18T07:25:49.106Z,71.67
2023-05-18T07:28:17.100Z,70.09
2023-05-18T07:30:44.227Z,69.17
2023-05-18T07:33:11.428Z,69.96
2023-05-18T07:35:38.666Z,67.49
2023-05-18T07:38:05.758Z,67.00
2023-05-18T07:40:32.964Z,66.95
2023-05-18T07:43:00.023Z,67.53
2023-05-18T07:45:27.090Z,65.02
2023-05-18T07:47:54.481Z,65.85
2023-05-18T07:50:21.769Z,65.06
2023-05-18T07:52:48.856Z,64.24
2023-05-18T07:55:16.482Z,64.42
2023-05-18T07:57:43.512Z,65.35
2023-05-18T08:00:11.296Z,62.87
2023-05-18T08:02:41.318Z,61.94
2023-05-18T08:05:10.990Z,63.74
2023-05-18T08:07:38.242Z,62.20
2023-05-18T08:10:06.098Z,61.21
2023-05-18T08:12:33.146Z,58.36
2023-05-18T08:15:00.270Z,58.70
2023-05-18T08:17:27.355Z,55.83
2023-05-18T08:19:54.677Z,57.30
2023-05-18T08:22:21.837Z,55.72
2023-05-18T08:24:48.908Z,55.78
2023-05-18T08:27:16.088Z,56.28
2023-05-18T08:29:43.270Z,57.13
2023-05-18T08:32:10.638Z,55.26
2023-05-18T08:34:37.774Z,53.82
2023-05-18T08:37:05.143Z,53.03
2023-05-18T08:39:32.454Z,55.21
2023-05-18T08:42:03.752Z,54.44
2023-05-18T08:44:38.828Z,55.84
2023-05-18T08:47:09.698Z,55.18
2023-05-18T08:49:37.086Z,56.01
2023-05-18T08:52:05.583Z,55.74
2023-05-18T08:54:33.112Z,54.68
2023-05-18T08:57:01.008Z,57.35
2023-05-18T08:59:31.841Z,54.26
2023-05-18T09:01:59.349Z,53.45
2023-05-18T09:04:27.703Z,53.83
2023-05-18T09:06:56.342Z,52.55
2023-05-18T09:09:24.107Z,52.00
2023-05-18T09:11:52.188Z,52.12
2023-05-18T09:14:19.369Z,51.19
2023-05-18T09:16:46.401Z,51.01
2023-05-18T09:19:13.543Z,52.91
2023-05-18T09:21:40.762Z,52.15
2023-05-18T09:24:08.455Z,50.65
2023-05-18T09:26:35.644Z,52.58
2023-05-18T09:29:02.747Z,51.88
2023-05-18T09:31:30.696Z,50.50
2023-05-18T09:33:58.704Z,51.37
2023-05-18T09:36:26.835Z,53.00
2023-05-18T09:38:53.972Z,51.94
2023-05-18T09:41:21.802Z,51.30
2023-05-18T09:43:49.145Z,52.07
2023-05-18T09:46:16.262Z,52.66
2023-05-18T09:48:46.462Z,49.27
2023-05-18T09:51:16.832Z,50.37
2023-05-18T09:53:57.734Z,48.94
2023-05-18T09:56:26.833Z,49.45
2023-05-18T09:58:54.169Z,51.70
2023-05-18T10:01:21.712Z,48.61
2023-05-18T10:03:49.784Z,50.09
2023-05-18T10:06:21.320Z,50.86
2023-05-18T10:08:48.494Z,52.88
2023-05-18T10:11:21.717Z,50.98
2023-05-18T10:13:55.150Z,51.76
2023-05-18T10:16:24.130Z,49.05
2023-05-18T10:18:53.862Z,48.03
2023-05-18T10:21:22.773Z,49.18
2023-05-18T10:23:51.034Z,49.24
2023-05-18T10:26:22.118Z,48.33
2023-05-18T10:28:50.387Z,48.15
2023-05-18T10:31:17.563Z,50.17
2023-05-18T10:33:46.108Z,49.53
2023-05-18T10:36:13.283Z,48.18
2023-05-18T10:38:45.064Z,49.25
2023-05-18T10:41:13.431Z,49.70
2023-05-18T10:43:41.677Z,50.10
2023-05-18T10:46:09.612Z,50.03
2023-05-18T10:48:40.820Z,47.10
2023-05-18T10:51:08.356Z,48.42
2023-05-18T10:53:36.699Z,46.28
2023-05-18T10:56:04.139Z,46.19
2023-05-18T10:58:32.532Z,48.14
2023-05-18T11:01:01.876Z,48.27
2023-05-18T11:03:32.598Z,46.86
2023-05-18T11:06:09.011Z,48.25
2023-05-18T11:08:49.397Z,47.17
2023-05-18T11:11:19.259Z,48.12
2023-05-18T11:13:51.287Z,48.00
2023-05-18T11:16:19.893Z,49.76
2023-05-18T11:18:52.256Z,49.66
2023-05-18T11:21:41.556Z,48.51
2023-05-18T11:24:18.010Z,47.03
2023-05-18T11:26:50.229Z,45.02
2023-05-18T11:29:20.434Z,45.41
2023-05-18T11:31:55.462Z,49.78
2023-05-18T11:34:49.752Z,46.45
2023-05-18T11:37:38.110Z,46.01
2023-05-18T11:40:11.287Z,46.32
2023-05-18T11:42:39.176Z,45.22
2023-05-18T11:45:08.083Z,44.71
2023-05-18T11:47:40.511Z,44.51
2023-05-18T11:50:08.622Z,47.52
2023-05-18T11:52:51.538Z,45.33
2023-05-18T11:55:20.547Z,44.80
2023-05-18T11:57:52.099Z,44.42
2023-05-18T12:00:20.370Z,47.18
2023-05-18T12:02:48.944Z,46.23
2023-05-18T12:05:17.174Z,46.66
2023-05-18T12:07:45.427Z,44.06
2023-05-18T12:10:17.138Z,47.76
2023-05-18T12:12:49.083Z,47.60
2023-05-18T12:15:17.461Z,43.44
2023-05-18T12:17:49.798Z,43.24
2023-05-18T12:20:22.305Z,43.32
2023-05-18T12:22:53.851Z,42.63
2023-05-18T12:25:23.375Z,43.65
2023-05-18T12:27:52.110Z,43.12
2023-05-18T12:30:20.230Z,42.54
2023-05-18T12:32:50.864Z,44.06
2023-05-18T12:35:21.743Z,42.79
2023-05-18T12:37:48.946Z,42.64
2023-05-18T12:40:17.626Z,42.80
2023-05-18T12:43:01.042Z,41.77
2023-05-18T12:45:33.464Z,42.51
2023-05-18T12:48:11.390Z,44.29
2023-05-18T12:50:48.777Z,41.47
2023-05-18T12:53:17.114Z,41.73
2023-05-18T12:55:44.290Z,42.43
2023-05-18T12:58:18.119Z,44.16
2023-05-18T13:00:47.331Z,40.14
2023-05-18T13:03:16.902Z,41.07
2023-05-18T13:05:46.134Z,42.97
2023-05-18T13:08:21.697Z,41.66
2023-05-18T13:11:01.390Z,41.11
2023-05-18T13:13:36.685Z,40.18
2023-05-18T13:16:03.956Z,38.53
2023-05-18T13:18:31.150Z,43.15
2023-05-18T13:20:58.615Z,40.62
2023-05-18T13:23:29.906Z,40.53
2023-05-18T13:25:58.804Z,39.85
2023-05-18T13:28:26.827Z,39.17
2023-05-18T13:30:54.207Z,39.93
2023-05-18T13:33:21.395Z,40.76
2023-05-18T13:35:49.737Z,41.87
2023-05-18T13:38:17.064Z,42.92
2023-05-18T13:40:45.629Z,39.46
2023-05-18T13:43:13.901Z,41.52
2023-05-18T13:45:41.985Z,40.42
2023-05-18T13:48:10.634Z,39.64
2023-05-18T13:50:38.930Z,38.38
2023-05-18T13:53:06.646Z,37.17
2023-05-18T13:55:34.759Z,40.17
2023-05-18T13:58:01.864Z,39.02
2023-05-18T14:00:29.021Z,37.95
2023-05-18T14:02:56.586Z,38.14
2023-05-18T14:05:24.383Z,39.64
2023-05-18T14:07:54.639Z,38.37
2023-05-18T14:10:21.881Z,37.58
2023-05-18T14:12:49.195Z,37.77
2023-05-18T14:15:16.297Z,36.86
2023-05-18T14:17:43.668Z,37.07
2023-05-18T14:20:12.066Z,36.71
2023-05-18T14:22:39.537Z,39.67
2023-05-18T14:25:06.967Z,35.61
2023-05-18T14:27:34.155Z,38.39
2023-05-18T14:30:01.372Z,38.45
2023-05-18T14:32:28.773Z,39.94
2023-05-18T14:34:57.829Z,40.99
2023-05-18T14:37:25.474Z,38.71
2023-05-18T14:39:52.700Z,37.33
2023-05-18T14:42:19.851Z,38.30
2023-05-18T14:44:47.060Z,39.36
2023-05-18T14:47:14.211Z,37.57
2023-05-18T14:49:41.305Z,36.49
2023-05-18T14:52:08.504Z,37.09
2023-05-18T14:54:36.546Z,37.83
2023-05-18T14:57:03.970Z,36.26
2023-05-18T14:59:31.128Z,32.33
2023-05-18T15:01:58.353Z,32.62
2023-05-18T15:04:25.886Z,32.14
2023-05-18T15:06:53.076Z,33.08
2023-05-18T15:09:20.367Z,31.50
2023-05-18T15:11:47.583Z,31.04
2023-05-18T15:14:14.764Z,30.22
2023-05-18T15:16:42.410Z,28.13
2023-05-18T15:19:09.889Z,28.52
2023-05-18T15:21:37.131Z,27.75
2023-05-18T15:24:04.276Z,27.53
2023-05-18T15:26:31.807Z,29.02
2023-05-18T15:28:59.031Z,27.93
2023-05-18T15:31:26.296Z,28.53
2023-05-18T15:33:53.598Z,28.08
2023-05-18T15:36:21.699Z,28.45
2023-05-18T15:38:48.785Z,29.87
2023-05-18T15:41:16.036Z,28.43
2023-05-18T15:43:43.517Z,28.52
2023-05-18T15:46:10.786Z,27.66
2023-05-18T15:48:37.987Z,27.22
2023-05-18T15:51:05.228Z,27.82
2023-05-18T15:53:32.344Z,27.15
2023-05-18T15:56:00.380Z,27.05
2023-05-18T15:58:27.556Z,27.64
2023-05-18T16:00:54.928Z,25.97
2023-05-18T16:03:22.298Z,25.53
2023-05-18T16:05:50.204Z,27.78
2023-05-18T16:08:17.415Z,24.25
2023-05-18T16:10:44.485Z,26.49
2023-05-18T16:13:11.601Z,25.07
2023-05-18T16:15:38.676Z,24.71
2023-05-18T16:18:06.004Z,25.18
2023-05-18T16:20:33.410Z,24.51
2023-05-18T16:23:00.701Z,24.51
2023-05-18T16:25:28.993Z,25.52
2023-05-18T16:27:56.372Z,26.27
2023-05-18T16:30:23.613Z,24.98
2023-05-18T16:32:50.737Z,28.24
2023-05-18T16:35:17.904Z,27.54
2023-05-18T16:37:45.153Z,26.73
2023-05-18T16:40:12.469Z,26.04
2023-05-18T16:42:39.522Z,25.67
2023-05-18T16:45:06.919Z,25.99
2023-05-18T16:47:34.131Z,25.36
2023-05-18T16:50:01.389Z,25.93
2023-05-18T16:52:28.880Z,25.51
2023-05-18T16:54:55.987Z,24.60
2023-05-18T16:57:25.349Z,26.09
2023-05-18T16:59:53.764Z,27.42
2023-05-18T17:02:21.082Z,26.29
2023-05-18T17:04:49.800Z,25.78
2023-05-18T17:07:17.346Z,27.42
2023-05-18T17:09:44.532Z,26.78
2023-05-18T17:12:12.472Z,26.83
2023-05-18T17:14:39.827Z,27.25
2023-05-18T17:17:07.614Z,28.09
2023-05-18T17:19:35.284Z,27.01
2023-05-18T17:22:03.606Z,27.44
2023-05-18T17:24:30.761Z,28.09
2023-05-18T17:26:59.004Z,28.73
2023-05-18T17:29:27.010Z,27.25
2023-05-18T17:31:54.518Z,28.49
2023-05-18T17:34:22.365Z,28.81
2023-05-18T17:36:49.984Z,29.47
2023-05-18T17:39:17.078Z,28.38
2023-05-18T17:41:44.666Z,28.90
2023-05-18T17:44:13.941Z,29.35
2023-05-18T17:46:41.605Z,28.90
2023-05-18T17:49:09.101Z,30.04
2023-05-18T17:51:36.219Z,32.39
2023-05-18T17:54:03.747Z,35.26
2023-05-18T17:56:31.675Z,36.33
2023-05-18T17:58:59.392Z,38.20
2023-05-18T18:01:27.611Z,39.84
2023-05-18T18:03:55.574Z,42.28
2023-05-18T18:06:23.490Z,41.08
2023-05-18T18:08:53.639Z,41.50
2023-05-18T18:11:21.939Z,42.56
2023-05-18T18:13:49.884Z,41.63
2023-05-18T18:16:18.181Z,42.84
2023-05-18T18:18:45.420Z,41.74
2023-05-18T18:21:12.851Z,41.78
2023-05-18T18:23:40.433Z,42.21
2023-05-18T18:26:08.385Z,42.62
2023-05-18T18:28:35.720Z,42.45
2023-05-18T18:31:03.606Z,42.16
2023-05-18T18:33:32.509Z,43.90
2023-05-18T18:36:02.230Z,43.30
2023-05-18T18:38:29.425Z,44.65
2023-05-18T18:41:01.204Z,44.74
2023-05-18T18:43:28.637Z,45.62
2023-05-18T18:45:57.141Z,45.79
2023-05-18T18:48:25.410Z,45.88
2023-05-18T18:50:53.240Z,46.40
2023-05-18T18:53:20.517Z,46.51
2023-05-18T18:55:47.915Z,48.22
2023-05-18T18:58:15.623Z,48.82
2023-05-18T19:00:42.888Z,48.36
2023-05-18T19:03:10.402Z,48.57
2023-05-18T19:05:38.701Z,49.54
2023-05-18T19:08:06.106Z,50.22
2023-05-18T19:10:34.332Z,50.76
2023-05-18T19:13:05.608Z,51.11
2023-05-18T19:15:36.634Z,51.59
2023-05-18T19:18:04.169Z,52.50
2023-05-18T19:20:31.327Z,52.54
2023-05-18T19:22:58.484Z,52.31
2023-05-18T19:25:26.266Z,53.10
2023-05-18T19:27:53.928Z,53.25
2023-05-18T19:30:22.312Z,53.71
2023-05-18T19:32:50.206Z,54.80
2023-05-18T19:35:22.131Z,54.75
2023-05-18T19:37:49.929Z,55.43
2023-05-18T19:40:17.338Z,56.59
2023-05-18T19:42:44.475Z,56.45
2023-05-18T19:45:11.646Z,56.68
2023-05-18T19:47:38.744Z,57.17
2023-05-18T19:50:07.061Z,57.34
2023-05-18T19:52:34.366Z,57.84
2023-05-18T19:55:02.212Z,57.41
2023-05-18T19:57:29.782Z,57.88
2023-05-18T19:59:57.834Z,58.31
2023-05-18T20:02:25.604Z,58.75
2023-05-18T20:04:53.615Z,60.15
2023-05-18T20:07:22.388Z,65.44
2023-05-18T20:09:49.786Z,68.68
2023-05-18T20:12:16.910Z,73.09
2023-05-18T20:14:45.709Z,72.97
2023-05-18T20:17:13.977Z,75.32
2023-05-18T20:19:45.418Z,75.23
2023-05-18T20:22:12.485Z,72.34
2023-05-18T20:24:43.245Z,69.85
2023-05-18T20:27:16.741Z,70.28
2023-05-18T20:29:43.859Z,71.34
2023-05-18T20:32:11.103Z,73.62
2023-05-18T20:34:38.287Z,73.12
2023-05-18T20:37:07.929Z,70.58
2023-05-18T20:39:37.554Z,74.08
2023-05-18T20:42:05.635Z,75.39
2023-05-18T20:44:32.769Z,77.59
2023-05-18T20:47:01.049Z,79.65
2023-05-18T20:49:28.148Z,81.81
2023-05-18T20:51:55.403Z,81.70
2023-05-18T20:54:22.582Z,84.11
2023-05-18T20:56:51.144Z,82.38
2023-05-18T20:59:18.298Z,83.17
2023-05-18T21:01:45.456Z,82.37
2023-05-18T21:04:13.429Z,81.73
2023-05-18T21:06:43.925Z,81.27
2023-05-18T21:09:11.826Z,81.80
2023-05-18T21:11:38.890Z,81.99
2023-05-18T21:14:06.036Z,83.59
2023-05-18T21:16:33.702Z,81.79
2023-05-18T21:19:00.959Z,83.67
2023-05-18T21:21:28.520Z,85.09
2023-05-18T21:23:55.591Z,85.54
2023-05-18T21:26:22.844Z,82.82
2023-05-18T21:28:49.962Z,83.53
2023-05-18T21:31:17.070Z,85.82
2023-05-18T21:33:47.874Z,87.27
2023-05-18T21:36:26.248Z,87.28
2023-05-18T21:38:53.281Z,86.22
2023-05-18T21:41:21.705Z,88.32
2023-05-18T21:43:48.727Z,88.27
2023-05-18T21:46:15.872Z,88.76
2023-05-18T21:48:42.935Z,87.17
2023-05-18T21:51:11.749Z,89.10
2023-05-18T21:53:38.813Z,89.33
2023-05-18T21:56:06.261Z,89.97
2023-05-18T21:58:33.455Z,90.38
2023-05-18T22:01:00.899Z,92.94
2023-05-18T22:03:27.977Z,92.32
2023-05-18T22:05:55.065Z,90.36
2023-05-18T22:08:22.220Z,91.60
2023-05-18T22:10:49.287Z,90.97
2023-05-18T22:13:16.493Z,93.26
2023-05-18T22:15:43.543Z,91.22
2023-05-18T22:18:10.747Z,92.11
2023-05-18T22:20:38.890Z,91.34
2023-05-18T22:23:06.167Z,93.14
2023-05-18T22:25:33.178Z,93.00
2023-05-18T22:28:00.231Z,92.54
2023-05-18T22:30:30.432Z,93.95
2023-05-18T22:32:58.465Z,92.62
2023-05-18T22:35:25.590Z,93.85
2023-05-18T22:37:52.680Z,94.43
2023-05-18T22:40:19.800Z,94.95
2023-05-18T22:42:46.874Z,96.91
2023-05-18T22:45:14.086Z,96.57
2023-05-18T22:47:41.346Z,96.88
2023-05-18T22:50:09.089Z,99.20
2023-05-18T22:52:36.752Z,98.27
2023-05-18T22:55:05.453Z,97.72
2023-05-18T22:57:32.558Z,98.77
2023-05-18T22:59:59.622Z,97.91
2023-05-18T23:02:27.160Z,98.53
2023-05-18T23:04:54.233Z,98.70
2023-05-18T23:07:23.633Z,99.13
2023-05-18T23:09:52.157Z,98.32
2023-05-18T23:12:20.312Z,98.41
2023-05-18T23:14:49.618Z,100.00
2023-05-18T23:17:22.704Z,100.00
2023-05-18T23:19:53.753Z,100.00
2023-05-18T23:22:21.385Z,100.00
2023-05-18T23:24:48.463Z,100.00
2023-05-18T23:27:15.492Z,100.00
2023-05-18T23:29:42.738Z,100.00
2023-05-18T23:32:10.000Z,100.00
2023-05-18T23:34:37.572Z,100.00
2023-05-18T23:37:11.682Z,100.00
2023-05-18T23:39:43.445Z,100.00
2023-05-18T23:42:12.415Z,100.00
2023-05-18T23:44:39.761Z,100.00
2023-05-18T23:47:07.190Z,100.00
2023-05-18T23:49:34.412Z,100.00
2023-05-18T23:52:02.625Z,100.00
2023-05-18T23:54:30.252Z,100.00
2023-05-18T23:56:58.790Z,100.00
2023-05-18T23:59:26.248Z,100.00
